createdAt,value
2016-12-09T00:00:33.911Z,21.6
2016-12-09T00:01:43.581Z,21.66
2016-12-09T00:02:53.843Z,21.58
2016-12-09T00:04:04.122Z,21.62
2016-12-09T00:05:14.105Z,21.58
2016-12-09T00:06:24.385Z,21.65
2016-12-09T00:07:34.339Z,21.56
2016-12-09T00:08:44.601Z,21.58
2016-12-09T00:09:54.572Z,21.65
2016-12-09T00:11:04.221Z,21.62
2016-12-09T00:12:14.490Z,21.62
2016-12-09T00:13:24.442Z,21.62
2016-12-09T00:14:35.027Z,21.63
2016-12-09T00:15:45.292Z,21.63
2016-12-09T00:16:55.244Z,21.66
2016-12-09T00:18:05.510Z,21.65
2016-12-09T00:19:15.475Z,21.69
2016-12-09T00:20:25.737Z,21.69
2016-12-09T00:21:36.018Z,21.7
2016-12-09T00:22:46.016Z,21.74
2016-12-09T00:23:55.987Z,21.66
2016-12-09T00:25:05.631Z,21.75
2016-12-09T00:26:15.596Z,21.62
2016-12-09T00:27:25.267Z,21.63
2016-12-09T00:28:35.532Z,21.65
2016-12-09T00:29:45.496Z,21.63
2016-12-09T00:30:55.756Z,21.6
2016-12-09T00:32:06.015Z,21.66
2016-12-09T00:33:15.672Z,21.62
2016-12-09T00:34:25.654Z,21.62
2016-12-09T00:35:35.305Z,21.68
2016-12-09T00:36:45.561Z,21.62
2016-12-09T00:37:56.130Z,21.65
2016-12-09T00:39:06.102Z,21.63
2016-12-09T00:40:16.067Z,21.68
2016-12-09T00:41:26.038Z,21.65
2016-12-09T00:42:35.999Z,21.66
2016-12-09T00:43:46.255Z,21.62
2016-12-09T00:44:55.598Z,21.69
2016-12-09T00:46:05.865Z,21.68
2016-12-09T00:47:16.168Z,21.74
2016-12-09T00:48:26.157Z,21.6
2016-12-09T00:49:36.443Z,21.59
2016-12-09T00:50:46.100Z,21.63
2016-12-09T00:51:55.755Z,21.6
2016-12-09T00:53:06.031Z,21.66
2016-12-09T00:54:15.675Z,21.74
2016-12-09T00:55:25.320Z,21.72
2016-12-09T00:56:34.974Z,21.66
2016-12-09T00:57:45.247Z,21.62
2016-12-09T00:58:55.199Z,21.66
2016-12-09T01:00:05.166Z,21.7
2016-12-09T01:01:15.422Z,21.72
2016-12-09T01:02:25.400Z,21.7
2016-12-09T01:03:35.355Z,21.7
2016-12-09T01:04:45.621Z,21.75
2016-12-09T01:05:55.873Z,21.7
2016-12-09T01:07:06.456Z,21.72
2016-12-09T01:08:16.737Z,21.8
2016-12-09T01:09:26.686Z,21.7
2016-12-09T01:10:36.031Z,21.66
2016-12-09T01:11:46.295Z,21.69
2016-12-09T01:12:56.559Z,21.75
2016-12-09T01:14:06.821Z,21.72
2016-12-09T01:15:17.096Z,21.69
2016-12-09T01:16:27.361Z,21.75
2016-12-09T01:17:37.625Z,21.7
2016-12-09T01:18:48.200Z,21.75
2016-12-09T01:19:58.171Z,21.77
2016-12-09T01:21:08.135Z,21.69
2016-12-09T01:22:18.091Z,21.72
2016-12-09T01:23:28.364Z,21.7
2016-12-09T01:24:37.998Z,21.66
2016-12-09T01:25:47.656Z,21.68
2016-12-09T01:26:57.301Z,21.75
2016-12-09T01:28:07.576Z,21.68
2016-12-09T01:29:17.537Z,21.68
2016-12-09T01:30:27.806Z,21.68
2016-12-09T01:31:37.953Z,21.72
2016-12-09T01:32:47.908Z,21.66
2016-12-09T01:33:58.176Z,21.62
2016-12-09T01:35:08.449Z,21.69
2016-12-09T01:36:18.087Z,21.72
2016-12-09T01:37:28.359Z,21.65
2016-12-09T01:38:38.327Z,21.7
2016-12-09T01:39:48.589Z,21.69
2016-12-09T01:40:58.550Z,21.72
2016-12-09T01:42:09.117Z,21.7
2016-12-09T01:43:19.380Z,21.7
2016-12-09T01:44:29.652Z,21.74
2016-12-09T01:45:39.924Z,21.74
2016-12-09T01:46:50.186Z,21.69
2016-12-09T01:48:00.753Z,21.77
2016-12-09T01:49:11.018Z,21.75
2016-12-09T01:50:20.976Z,21.69
2016-12-09T01:51:31.248Z,21.77
2016-12-09T01:52:41.520Z,21.72
2016-12-09T01:53:51.460Z,21.74
2016-12-09T01:55:01.764Z,21.75
2016-12-09T01:56:12.032Z,21.72
2016-12-09T01:57:21.991Z,21.74
2016-12-09T01:58:31.953Z,21.72
2016-12-09T01:59:42.212Z,21.69
2016-12-09T02:00:52.179Z,21.75
2016-12-09T02:02:02.135Z,21.7
2016-12-09T02:03:12.393Z,21.75
2016-12-09T02:04:22.355Z,21.69
2016-12-09T02:05:32.932Z,21.7
2016-12-09T02:06:42.903Z,21.77
2016-12-09T02:07:53.177Z,21.74
2016-12-09T02:09:03.453Z,21.68
2016-12-09T02:10:13.760Z,21.72
2016-12-09T02:11:24.029Z,21.69
2016-12-09T02:12:34.291Z,21.72
2016-12-09T02:13:44.557Z,21.74
2016-12-09T02:14:54.512Z,21.72
2016-12-09T02:16:04.774Z,21.77
2016-12-09T02:17:15.350Z,21.72
2016-12-09T02:18:25.613Z,21.7
2016-12-09T02:19:35.881Z,21.78
2016-12-09T02:20:45.843Z,21.77
2016-12-09T02:21:55.824Z,21.72
2016-12-09T02:23:06.387Z,21.69
2016-12-09T02:24:16.342Z,21.69
2016-12-09T02:25:26.289Z,21.72
2016-12-09T02:26:36.547Z,21.7
2016-12-09T02:27:46.812Z,21.7
2016-12-09T02:28:56.764Z,21.7
2016-12-09T02:30:06.735Z,21.74
2016-12-09T02:31:15.763Z,21.72
2016-12-09T02:32:25.724Z,21.72
2016-12-09T02:33:35.686Z,21.75
2016-12-09T02:34:46.252Z,21.81
2016-12-09T02:35:56.207Z,21.74
2016-12-09T02:37:06.486Z,21.74
2016-12-09T02:38:16.751Z,21.75
2016-12-09T02:39:27.010Z,21.77
2016-12-09T02:40:37.269Z,21.78
2016-12-09T02:41:47.222Z,21.7
2016-12-09T02:42:57.488Z,21.84
2016-12-09T02:44:07.746Z,21.83
2016-12-09T02:45:18.031Z,21.68
2016-12-09T02:46:27.987Z,21.81
2016-12-09T02:47:38.249Z,21.74
2016-12-09T02:48:48.208Z,21.77
2016-12-09T02:49:58.476Z,21.77
2016-12-09T02:51:08.156Z,21.75
2016-12-09T02:52:18.719Z,21.85
2016-12-09T02:53:28.675Z,21.7
2016-12-09T02:54:38.962Z,21.8
2016-12-09T02:55:49.226Z,21.75
2016-12-09T02:56:59.506Z,21.74
2016-12-09T02:58:10.070Z,21.8
2016-12-09T02:59:20.348Z,21.77
2016-12-09T03:00:30.310Z,21.75
2016-12-09T03:01:40.271Z,21.74
2016-12-09T03:02:50.530Z,21.7
2016-12-09T03:04:01.087Z,21.69
2016-12-09T03:05:11.344Z,21.7
2016-12-09T03:06:20.997Z,21.72
2016-12-09T03:07:30.642Z,21.68
2016-12-09T03:08:40.901Z,21.72
2016-12-09T03:09:50.866Z,21.8
2016-12-09T03:11:00.822Z,21.8
2016-12-09T03:12:11.105Z,21.7
2016-12-09T03:13:21.064Z,21.74
2016-12-09T03:14:31.324Z,21.7
2016-12-09T03:15:41.583Z,21.78
2016-12-09T03:16:51.551Z,21.75
2016-12-09T03:18:01.506Z,21.7
2016-12-09T03:19:11.163Z,21.74
2016-12-09T03:20:21.423Z,21.77
2016-12-09T03:21:31.992Z,21.83
2016-12-09T03:22:41.668Z,21.72
2016-12-09T03:23:51.929Z,21.77
2016-12-09T03:25:01.582Z,21.75
2016-12-09T03:26:11.227Z,21.81
2016-12-09T03:27:21.797Z,21.75
2016-12-09T03:28:31.749Z,21.81
2016-12-09T03:29:41.387Z,21.7
2016-12-09T03:30:51.656Z,21.7
2016-12-09T03:32:01.608Z,21.83
2016-12-09T03:33:11.860Z,21.77
2016-12-09T03:34:22.123Z,21.75
2016-12-09T03:35:32.421Z,21.7
2016-12-09T03:36:42.372Z,21.85
2016-12-09T03:37:52.337Z,21.8
2016-12-09T03:39:02.584Z,21.75
2016-12-09T03:40:12.885Z,21.7
2016-12-09T03:41:22.530Z,21.7
2016-12-09T03:42:32.481Z,21.74
2016-12-09T03:43:42.437Z,21.74
2016-12-09T03:44:52.693Z,21.75
2016-12-09T03:46:02.980Z,21.78
2016-12-09T03:47:12.930Z,21.75
2016-12-09T03:48:22.885Z,21.72
2016-12-09T03:49:32.534Z,21.75
2016-12-09T03:50:42.788Z,21.72
2016-12-09T03:51:53.063Z,21.7
2016-12-09T03:53:03.345Z,21.75
2016-12-09T03:54:13.620Z,21.75
2016-12-09T03:55:23.893Z,21.74
2016-12-09T03:56:34.462Z,21.74
2016-12-09T03:57:44.724Z,21.78
2016-12-09T03:58:54.682Z,21.72
2016-12-09T04:00:04.644Z,21.78
2016-12-09T04:01:14.611Z,21.88
2016-12-09T04:02:24.871Z,21.8
2016-12-09T04:03:34.829Z,21.74
2016-12-09T04:04:44.172Z,21.78
2016-12-09T04:05:54.140Z,21.81
2016-12-09T04:07:03.785Z,21.78
2016-12-09T04:08:13.772Z,21.84
2016-12-09T04:09:23.762Z,21.78
2016-12-09T04:10:34.014Z,21.81
2016-12-09T04:11:44.283Z,21.88
2016-12-09T04:12:54.561Z,21.75
2016-12-09T04:14:04.820Z,21.8
2016-12-09T04:15:14.782Z,21.8
2016-12-09T04:16:24.753Z,21.77
2016-12-09T04:17:35.031Z,21.85
2016-12-09T04:18:44.996Z,21.83
2016-12-09T04:19:55.921Z,21.83
2016-12-09T04:21:06.199Z,21.81
2016-12-09T04:22:15.850Z,21.81
2016-12-09T04:23:26.138Z,21.78
2016-12-09T04:24:36.407Z,21.75
2016-12-09T04:25:47.003Z,21.74
2016-12-09T04:26:57.300Z,21.75
2016-12-09T04:28:07.280Z,21.8
2016-12-09T04:29:16.932Z,21.69
2016-12-09T04:30:26.887Z,21.8
2016-12-09T04:31:37.188Z,21.74
2016-12-09T04:32:47.142Z,21.8
2016-12-09T04:33:56.793Z,21.78
2016-12-09T04:35:07.063Z,21.74
2016-12-09T04:36:17.033Z,21.78
2016-12-09T04:37:27.597Z,21.7
2016-12-09T04:38:37.559Z,21.77
2016-12-09T04:39:47.207Z,21.7
2016-12-09T04:40:57.162Z,21.81
2016-12-09T04:42:07.436Z,21.74
2016-12-09T04:43:17.689Z,21.8
2016-12-09T04:44:27.331Z,21.77
2016-12-09T04:45:37.283Z,21.7
2016-12-09T04:46:47.234Z,21.77
2016-12-09T04:47:57.503Z,21.72
2016-12-09T04:49:07.756Z,21.7
2016-12-09T04:50:18.032Z,21.74
2016-12-09T04:51:27.984Z,21.83
2016-12-09T04:52:38.249Z,21.75
2016-12-09T04:53:48.518Z,21.81
2016-12-09T04:54:59.084Z,21.83
2016-12-09T04:56:09.035Z,21.8
2016-12-09T04:57:18.995Z,21.78
2016-12-09T04:58:28.963Z,21.83
2016-12-09T04:59:38.617Z,21.8
2016-12-09T05:00:49.187Z,21.8
2016-12-09T05:01:59.455Z,21.83
2016-12-09T05:03:09.413Z,21.83
2016-12-09T05:04:19.667Z,21.83
2016-12-09T05:05:29.625Z,21.8
2016-12-09T05:06:39.891Z,21.85
2016-12-09T05:07:49.862Z,21.74
2016-12-09T05:08:59.823Z,21.78
2016-12-09T05:10:10.079Z,21.81
2016-12-09T05:11:20.341Z,21.77
2016-12-09T05:12:30.601Z,21.78
2016-12-09T05:13:40.568Z,21.77
2016-12-09T05:14:50.213Z,21.8
2016-12-09T05:16:00.168Z,21.7
2016-12-09T05:17:10.127Z,21.74
2016-12-09T05:18:20.386Z,21.7
2016-12-09T05:19:30.328Z,21.75
2016-12-09T05:20:40.306Z,21.8
2016-12-09T05:21:50.591Z,21.74
2016-12-09T05:23:00.552Z,21.77
2016-12-09T05:24:10.808Z,21.74
2016-12-09T05:25:21.077Z,21.75
2016-12-09T05:26:31.340Z,21.84
2016-12-09T05:27:41.286Z,21.7
2016-12-09T05:28:51.571Z,21.77
2016-12-09T05:30:01.842Z,21.81
2016-12-09T05:31:12.104Z,21.88
2016-12-09T05:32:22.374Z,21.74
2016-12-09T05:33:32.637Z,21.77
2016-12-09T05:34:42.601Z,21.75
2016-12-09T05:35:52.554Z,21.75
2016-12-09T05:37:02.834Z,21.7
2016-12-09T05:38:12.476Z,21.78
2016-12-09T05:39:22.438Z,21.72
2016-12-09T05:40:32.399Z,21.78
2016-12-09T05:41:42.666Z,21.75
2016-12-09T05:42:52.941Z,21.85
2016-12-09T05:44:02.893Z,21.74
2016-12-09T05:45:12.880Z,21.74
2016-12-09T05:46:23.146Z,21.77
2016-12-09T05:47:33.411Z,21.83
2016-12-09T05:48:43.363Z,21.74
2016-12-09T05:49:53.635Z,21.75
2016-12-09T05:51:03.898Z,21.74
2016-12-09T05:52:14.160Z,21.77
2016-12-09T05:53:24.727Z,21.81
2016-12-09T05:54:35.021Z,21.75
2016-12-09T05:55:44.981Z,21.81
2016-12-09T05:56:55.240Z,21.84
2016-12-09T05:58:05.501Z,21.72
2016-12-09T05:59:15.758Z,21.8
2016-12-09T06:00:26.029Z,21.77
2016-12-09T06:01:36.324Z,21.78
2016-12-09T06:02:46.593Z,21.81
2016-12-09T06:03:56.238Z,21.75
2016-12-09T06:05:06.197Z,21.7
2016-12-09T06:06:16.463Z,21.74
2016-12-09T06:07:26.414Z,21.75
2016-12-09T06:08:36.379Z,21.75
2016-12-09T06:09:46.644Z,21.81
2016-12-09T06:10:56.927Z,21.7
2016-12-09T06:12:07.211Z,21.74
2016-12-09T06:13:17.208Z,21.78
2016-12-09T06:14:26.891Z,21.74
2016-12-09T06:15:37.189Z,21.77
2016-12-09T06:16:47.752Z,21.75
2016-12-09T06:17:58.018Z,21.74
2016-12-09T06:19:07.983Z,21.77
2016-12-09T06:20:18.245Z,21.7
2016-12-09T06:21:28.197Z,21.81
2016-12-09T06:22:38.136Z,21.83
2016-12-09T06:23:48.406Z,21.77
2016-12-09T06:24:58.067Z,21.77
2016-12-09T06:26:08.334Z,21.8
2016-12-09T06:27:18.329Z,21.81
2016-12-09T06:28:28.596Z,21.81
2016-12-09T06:29:38.869Z,21.74
2016-12-09T06:30:48.833Z,21.7
2016-12-09T06:31:59.115Z,21.85
2016-12-09T06:33:09.079Z,21.85
2016-12-09T06:34:19.649Z,21.77
2016-12-09T06:35:29.549Z,21.8
2016-12-09T06:36:39.521Z,21.69
2016-12-09T06:37:49.489Z,21.75
2016-12-09T06:38:59.469Z,21.75
2016-12-09T06:40:09.761Z,21.7
2016-12-09T06:41:19.745Z,21.75
2016-12-09T06:42:29.397Z,21.75
2016-12-09T06:43:39.684Z,21.78
2016-12-09T06:44:49.048Z,21.74
2016-12-09T06:45:59.767Z,21.78
2016-12-09T06:47:09.722Z,21.68
2016-12-09T06:48:19.386Z,21.8
2016-12-09T06:49:29.665Z,21.8
2016-12-09T06:50:39.994Z,21.83
2016-12-09T06:51:50.564Z,21.7
2016-12-09T06:53:00.849Z,21.77
2016-12-09T06:54:11.126Z,21.74
2016-12-09T06:55:21.095Z,21.74
2016-12-09T06:56:31.066Z,21.72
2016-12-09T06:57:41.323Z,21.7
2016-12-09T06:58:51.278Z,21.84
2016-12-09T07:00:01.242Z,21.88
2016-12-09T07:01:11.517Z,21.72
2016-12-09T07:02:21.466Z,21.75
2016-12-09T07:03:32.052Z,21.78
2016-12-09T07:04:41.693Z,21.74
2016-12-09T07:05:51.658Z,21.7
2016-12-09T07:07:01.610Z,21.77
2016-12-09T07:08:11.886Z,21.83
2016-12-09T07:09:22.487Z,21.8
2016-12-09T07:10:32.753Z,21.78
2016-12-09T07:11:43.028Z,21.8
2016-12-09T07:12:53.303Z,21.83
2016-12-09T07:14:02.986Z,21.78
2016-12-09T07:15:13.261Z,21.78
2016-12-09T07:16:23.546Z,21.84
2016-12-09T07:17:33.810Z,21.77
2016-12-09T07:18:43.469Z,21.78
2016-12-09T07:19:53.741Z,21.85
2016-12-09T07:21:04.307Z,21.74
2016-12-09T07:22:13.977Z,21.84
2016-12-09T07:23:24.255Z,21.74
2016-12-09T07:24:34.212Z,21.81
2016-12-09T07:25:44.182Z,21.83
2016-12-09T07:26:54.166Z,21.88
2016-12-09T07:28:04.451Z,21.83
2016-12-09T07:29:14.738Z,21.72
2016-12-09T07:30:24.716Z,21.74
2016-12-09T07:31:34.681Z,21.74
2016-12-09T07:32:44.652Z,21.78
2016-12-09T07:33:54.315Z,21.77
2016-12-09T07:35:04.582Z,21.74
2016-12-09T07:36:14.252Z,21.83
2016-12-09T07:37:24.565Z,21.84
2016-12-09T07:38:34.863Z,21.81
2016-12-09T07:39:45.147Z,21.74
2016-12-09T07:40:55.426Z,21.77
2016-12-09T07:42:05.712Z,21.84
2016-12-09T07:43:16.033Z,21.88
2016-12-09T07:44:26.033Z,21.8
2016-12-09T07:45:36.024Z,21.85
2016-12-09T07:46:45.726Z,21.8
2016-12-09T07:47:56.007Z,21.83
2016-12-09T07:49:06.286Z,21.83
2016-12-09T07:50:16.861Z,21.83
2016-12-09T07:51:26.839Z,21.85
2016-12-09T07:52:36.810Z,21.85
2016-12-09T07:53:47.096Z,21.85
2016-12-09T07:54:57.380Z,21.84
2016-12-09T07:56:07.364Z,21.81
2016-12-09T07:57:17.030Z,21.81
2016-12-09T07:58:27.539Z,21.83
2016-12-09T07:59:37.837Z,21.85
2016-12-09T08:00:48.109Z,21.83
2016-12-09T08:01:58.386Z,21.81
2016-12-09T08:03:08.361Z,21.8
2016-12-09T08:04:18.474Z,21.91
2016-12-09T08:05:28.470Z,21.89
2016-12-09T08:06:38.766Z,21.92
2016-12-09T08:07:49.049Z,21.88
2016-12-09T08:08:59.005Z,21.89
2016-12-09T08:10:08.964Z,21.88
2016-12-09T08:11:18.931Z,21.83
2016-12-09T08:12:29.498Z,21.88
2016-12-09T08:13:39.776Z,21.83
2016-12-09T08:14:49.734Z,21.83
2016-12-09T08:16:00.007Z,21.91
2016-12-09T08:17:09.977Z,21.91
2016-12-09T08:18:20.301Z,21.85
2016-12-09T08:19:30.593Z,21.83
2016-12-09T08:20:40.904Z,21.83
2016-12-09T08:21:50.262Z,21.84
2016-12-09T08:23:00.519Z,21.83
2016-12-09T08:24:10.843Z,21.83
2016-12-09T08:25:21.361Z,21.88
2016-12-09T08:26:31.326Z,21.83
2016-12-09T08:27:41.597Z,21.88
2016-12-09T08:28:51.912Z,21.83
2016-12-09T08:30:02.493Z,21.89
2016-12-09T08:31:12.766Z,21.84
2016-12-09T08:32:22.410Z,21.81
2016-12-09T08:33:32.381Z,21.85
2016-12-09T08:34:42.657Z,21.85
2016-12-09T08:35:53.220Z,21.85
2016-12-09T08:37:03.182Z,21.89
2016-12-09T08:38:13.466Z,21.92
2016-12-09T08:39:23.742Z,21.92
2016-12-09T08:40:33.722Z,21.88
2016-12-09T08:41:43.995Z,21.88
2016-12-09T08:42:54.267Z,21.94
2016-12-09T08:44:04.544Z,21.92
2016-12-09T08:45:14.538Z,21.94
2016-12-09T08:46:24.837Z,21.89
2016-12-09T08:47:34.503Z,21.96
2016-12-09T08:48:44.818Z,21.88
2016-12-09T08:49:54.770Z,21.94
2016-12-09T08:51:04.735Z,21.92
2016-12-09T08:52:15.329Z,21.84
2016-12-09T08:53:27.859Z,21.89
2016-12-09T08:54:37.829Z,21.94
2016-12-09T08:55:48.127Z,21.89
2016-12-09T08:56:58.127Z,21.91
2016-12-09T08:58:08.394Z,21.92
2016-12-09T08:59:18.371Z,21.88
2016-12-09T09:00:28.711Z,21.91
2016-12-09T09:01:38.365Z,21.94
2016-12-09T09:02:48.352Z,21.91
2016-12-09T09:03:58.959Z,21.92
2016-12-09T09:05:09.241Z,21.89
2016-12-09T09:06:18.902Z,21.91
2016-12-09T09:07:28.854Z,21.91
2016-12-09T09:08:38.803Z,21.94
2016-12-09T09:09:49.380Z,21.89
2016-12-09T09:10:59.668Z,21.96
2016-12-09T09:12:09.680Z,21.81
2016-12-09T09:13:19.949Z,21.97
2016-12-09T09:14:29.908Z,21.91
2016-12-09T09:15:40.483Z,21.94
2016-12-09T09:16:50.752Z,21.94
2016-12-09T09:18:00.414Z,21.91
2016-12-09T09:19:10.884Z,21.99
2016-12-09T09:20:20.881Z,21.88
2016-12-09T09:21:31.172Z,21.94
2016-12-09T09:22:41.459Z,21.96
2016-12-09T09:23:51.130Z,21.97
2016-12-09T09:25:01.406Z,21.96
2016-12-09T09:26:11.390Z,21.85
2016-12-09T09:27:21.383Z,21.96
2016-12-09T09:28:30.417Z,22
2016-12-09T09:29:40.068Z,21.94
2016-12-09T09:30:49.717Z,21.88
2016-12-09T09:32:00.091Z,21.81
2016-12-09T09:33:10.353Z,21.81
2016-12-09T09:34:20.363Z,21.99
2016-12-09T09:35:30.366Z,21.92
2016-12-09T09:36:40.017Z,21.97
2016-12-09T09:37:49.999Z,21.92
2016-12-09T09:39:00.617Z,21.88
2016-12-09T09:40:10.591Z,22
2016-12-09T09:41:20.568Z,21.81
2016-12-09T09:42:30.533Z,21.91
2016-12-09T09:43:40.799Z,21.81
2016-12-09T09:44:51.390Z,21.81
2016-12-09T09:46:01.380Z,21.91
2016-12-09T09:47:11.388Z,21.91
2016-12-09T09:48:21.727Z,21.92
2016-12-09T09:49:32.143Z,21.88
2016-12-09T09:50:42.726Z,21.92
2016-12-09T09:51:53.024Z,21.91
2016-12-09T09:53:03.037Z,21.94
2016-12-09T09:54:13.052Z,21.91
2016-12-09T09:55:23.375Z,21.99
2016-12-09T09:56:34.002Z,21.92
2016-12-09T09:57:44.019Z,21.99
2016-12-09T09:58:54.022Z,22
2016-12-09T10:00:04.035Z,21.96
2016-12-09T10:01:13.434Z,22
2016-12-09T10:02:24.006Z,21.91
2016-12-09T10:03:33.677Z,21.94
2016-12-09T10:04:43.971Z,21.97
2016-12-09T10:05:53.943Z,22.04
2016-12-09T10:07:03.943Z,21.94
2016-12-09T10:08:13.939Z,22.01
2016-12-09T10:09:23.939Z,21.92
2016-12-09T10:10:33.600Z,22.01
2016-12-09T10:11:43.809Z,21.96
2016-12-09T10:12:53.792Z,21.99
2016-12-09T10:14:04.357Z,22.01
2016-12-09T10:15:13.703Z,21.97
2016-12-09T10:16:23.697Z,21.99
2016-12-09T10:17:33.041Z,21.94
2016-12-09T10:18:43.348Z,21.96
2016-12-09T10:19:53.936Z,21.99
2016-12-09T10:21:03.924Z,21.94
2016-12-09T10:22:14.222Z,21.97
2016-12-09T10:23:23.908Z,21.97
2016-12-09T10:24:33.893Z,22.03
2016-12-09T10:25:44.513Z,21.99
2016-12-09T10:26:54.814Z,21.94
2016-12-09T10:28:05.093Z,22.03
2016-12-09T10:29:15.069Z,21.99
2016-12-09T10:30:24.725Z,21.96
2016-12-09T10:31:34.997Z,22
2016-12-09T10:32:44.715Z,21.97
2016-12-09T10:33:54.696Z,22.01
2016-12-09T10:35:04.689Z,21.99
2016-12-09T10:36:15.007Z,22.01
2016-12-09T10:37:24.991Z,22.04
2016-12-09T10:38:34.972Z,22.04
2016-12-09T10:39:45.248Z,22.03
2016-12-09T10:40:55.522Z,22
2016-12-09T10:42:05.188Z,22.03
2016-12-09T10:43:15.781Z,21.99
2016-12-09T10:44:25.446Z,22
2016-12-09T10:45:35.421Z,22.01
2016-12-09T10:46:45.686Z,22
2016-12-09T10:47:55.989Z,22.01
2016-12-09T10:49:06.576Z,22
2016-12-09T10:50:16.230Z,22.04
2016-12-09T10:51:26.213Z,22.04
2016-12-09T10:52:35.875Z,22.07
2016-12-09T10:53:45.846Z,22.04
2016-12-09T10:54:56.145Z,22.03
2016-12-09T10:56:06.429Z,22.08
2016-12-09T10:57:16.399Z,22.04
2016-12-09T10:58:26.466Z,22.08
2016-12-09T10:59:36.748Z,22.04
2016-12-09T11:00:47.315Z,22.08
2016-12-09T11:01:57.292Z,22.03
2016-12-09T11:03:06.975Z,21.96
2016-12-09T11:04:16.739Z,22.04
2016-12-09T11:05:26.444Z,22.08
2016-12-09T11:06:37.046Z,22.06
2016-12-09T11:07:47.027Z,21.96
2016-12-09T11:08:57.292Z,22.01
2016-12-09T11:10:07.574Z,22.14
2016-12-09T11:11:17.539Z,22.04
2016-12-09T11:12:27.801Z,22.06
2016-12-09T11:13:38.122Z,22.06
2016-12-09T11:14:48.426Z,22.06
2016-12-09T11:15:58.704Z,22.03
2016-12-09T11:17:09.007Z,22.06
2016-12-09T11:18:18.959Z,22.04
2016-12-09T11:19:28.623Z,22
2016-12-09T11:20:38.907Z,22.06
2016-12-09T11:21:49.190Z,22.08
2016-12-09T11:22:59.160Z,22
2016-12-09T11:24:09.768Z,21.99
2016-12-09T11:25:19.733Z,22
2016-12-09T11:26:29.400Z,22.04
2016-12-09T11:27:39.383Z,22.08
2016-12-09T11:28:49.685Z,22.01
2016-12-09T11:29:59.648Z,22.06
2016-12-09T11:31:09.969Z,22.1
2016-12-09T11:32:20.266Z,22.06
2016-12-09T11:33:30.618Z,22.03
2016-12-09T11:34:40.952Z,22.08
2016-12-09T11:35:51.236Z,22.04
2016-12-09T11:37:01.212Z,22.01
2016-12-09T11:38:11.182Z,22.07
2016-12-09T11:39:21.454Z,22.07
2016-12-09T11:40:31.737Z,21.99
2016-12-09T11:41:42.028Z,21.97
2016-12-09T11:42:51.703Z,22.07
2016-12-09T11:44:01.691Z,22.04
2016-12-09T11:45:11.681Z,22.07
2016-12-09T11:46:21.345Z,22.08
2016-12-09T11:47:31.947Z,22.07
2016-12-09T11:48:42.262Z,22
2016-12-09T11:49:52.561Z,22
2016-12-09T11:51:02.555Z,22.07
2016-12-09T11:52:12.545Z,22.06
2016-12-09T11:53:22.202Z,22
2016-12-09T11:54:31.893Z,22.07
2016-12-09T11:55:41.243Z,22.01
2016-12-09T11:56:51.233Z,22.04
2016-12-09T11:58:01.528Z,22.07
2016-12-09T11:59:12.126Z,22.07
2016-12-09T12:00:22.408Z,22.03
2016-12-09T12:01:32.693Z,21.99
2016-12-09T12:02:42.661Z,22.01
2016-12-09T12:03:52.641Z,22.1
2016-12-09T12:05:03.225Z,22.01
2016-12-09T12:06:13.487Z,22.08
2016-12-09T12:07:23.465Z,21.97
2016-12-09T12:08:33.759Z,22.08
2016-12-09T12:09:44.062Z,21.97
2016-12-09T12:10:54.636Z,22.1
2016-12-09T12:12:04.918Z,22.01
2016-12-09T12:13:14.876Z,22.1
2016-12-09T12:14:25.168Z,21.99
2016-12-09T12:15:35.478Z,22.06
2016-12-09T12:16:46.050Z,22.01
2016-12-09T12:17:56.310Z,22.06
2016-12-09T12:19:06.291Z,21.96
2016-12-09T12:20:16.277Z,22.01
2016-12-09T12:21:26.243Z,22.12
2016-12-09T12:22:36.909Z,22.01
2016-12-09T12:23:46.861Z,22.06
2016-12-09T12:24:56.476Z,22.01
2016-12-09T12:26:06.143Z,22.03
2016-12-09T12:27:16.143Z,22
2016-12-09T12:28:25.847Z,21.97
2016-12-09T12:29:35.845Z,22.01
2016-12-09T12:30:45.826Z,22.08
2016-12-09T12:31:55.184Z,22.01
2016-12-09T12:33:05.192Z,22.06
2016-12-09T12:34:15.498Z,22
2016-12-09T12:35:25.791Z,22.07
2016-12-09T12:36:35.802Z,22.03
2016-12-09T12:37:46.090Z,22
2016-12-09T12:38:56.385Z,22.06
2016-12-09T12:40:06.672Z,22.01
2016-12-09T12:41:17.186Z,22.04
2016-12-09T12:42:27.149Z,22.06
2016-12-09T12:43:37.430Z,22.14
2016-12-09T12:44:48.108Z,22.14
2016-12-09T12:45:58.071Z,22.18
2016-12-09T12:47:08.341Z,22.18
2016-12-09T12:48:18.604Z,22.12
2016-12-09T12:49:28.882Z,22.23
2016-12-09T12:50:39.180Z,22.22
2016-12-09T12:51:49.163Z,22.28
2016-12-09T12:52:59.499Z,22.31
2016-12-09T12:54:09.800Z,22.33
2016-12-09T12:55:19.793Z,22.3
2016-12-09T12:56:30.085Z,22.33
2016-12-09T12:57:39.746Z,22.37
2016-12-09T12:58:49.717Z,22.38
2016-12-09T12:59:59.998Z,22.41
2016-12-09T13:01:09.976Z,22.41
2016-12-09T13:02:20.251Z,22.46
2016-12-09T13:03:30.235Z,22.49
2016-12-09T13:04:40.228Z,22.43
2016-12-09T13:05:50.207Z,22.46
2016-12-09T13:07:00.199Z,22.51
2016-12-09T13:08:10.476Z,22.47
2016-12-09T13:09:20.155Z,22.46
2016-12-09T13:10:29.825Z,22.46
2016-12-09T13:11:39.527Z,22.49
2016-12-09T13:12:49.185Z,22.38
2016-12-09T13:13:59.751Z,22.36
2016-12-09T13:15:10.011Z,22.41
2016-12-09T13:16:20.299Z,22.41
2016-12-09T13:17:30.585Z,22.4
2016-12-09T13:18:40.568Z,22.4
2016-12-09T13:19:51.149Z,22.37
2016-12-09T13:21:01.127Z,22.37
2016-12-09T13:22:11.394Z,22.36
2016-12-09T13:23:21.685Z,22.36
2016-12-09T13:24:31.662Z,22.36
2016-12-09T13:25:41.950Z,22.38
2016-12-09T13:26:51.924Z,22.37
2016-12-09T13:28:01.898Z,22.36
2016-12-09T13:29:12.250Z,22.36
2016-12-09T13:30:22.257Z,22.33
2016-12-09T13:31:32.567Z,22.34
2016-12-09T13:32:42.856Z,22.31
2016-12-09T13:33:52.840Z,22.31
2016-12-09T13:35:02.836Z,22.31
2016-12-09T13:36:13.440Z,22.31
2016-12-09T13:37:23.729Z,22.34
2016-12-09T13:38:33.417Z,22.33
2016-12-09T13:39:43.697Z,22.31
2016-12-09T13:40:53.675Z,22.31
2016-12-09T13:42:04.267Z,22.37
2016-12-09T13:43:13.937Z,22.31
2016-12-09T13:44:24.538Z,22.34
2016-12-09T13:45:34.215Z,22.31
2016-12-09T13:46:44.173Z,22.31
2016-12-09T13:47:54.749Z,22.33
2016-12-09T13:49:05.018Z,22.28
2016-12-09T13:50:15.510Z,22.33
2016-12-09T13:51:24.553Z,22.31
2016-12-09T13:52:34.521Z,22.36
2016-12-09T13:53:44.824Z,22.31
2016-12-09T13:54:54.784Z,22.3
2016-12-09T13:56:04.752Z,22.36
2016-12-09T13:57:15.025Z,22.28
2016-12-09T13:58:25.322Z,22.38
2016-12-09T13:59:35.889Z,22.33
2016-12-09T14:00:45.866Z,22.28
2016-12-09T14:01:56.146Z,22.34
2016-12-09T14:03:06.436Z,22.18
2016-12-09T14:04:16.707Z,22.22
2016-12-09T14:05:27.278Z,22.3
2016-12-09T14:06:37.565Z,22.25
2016-12-09T14:07:47.537Z,22.22
2016-12-09T14:08:57.837Z,22.33
2016-12-09T14:10:08.116Z,22.25
2016-12-09T14:11:18.413Z,22.3
2016-12-09T14:12:28.696Z,22.3
2016-12-09T14:13:38.052Z,22.22
2016-12-09T14:14:48.337Z,22.19
2016-12-09T14:15:58.330Z,22.26
2016-12-09T14:17:08.295Z,22.28
2016-12-09T14:18:18.278Z,22.16
2016-12-09T14:19:28.565Z,22.26
2016-12-09T14:20:38.561Z,22.21
2016-12-09T14:21:49.143Z,22.16
2016-12-09T14:22:59.435Z,22.25
2016-12-09T14:24:09.716Z,22.31
2016-12-09T14:25:19.701Z,22.28
2016-12-09T14:26:29.975Z,22.26
2016-12-09T14:27:40.586Z,22.3
2016-12-09T14:28:50.552Z,22.33
2016-12-09T14:30:00.849Z,22.31
2016-12-09T14:31:10.807Z,22.3
2016-12-09T14:32:21.082Z,22.33
2016-12-09T14:33:31.659Z,22.4
2016-12-09T14:34:41.637Z,22.38
2016-12-09T14:35:51.921Z,22.36
2016-12-09T14:37:02.202Z,22.38
2016-12-09T14:38:12.488Z,22.44
2016-12-09T14:39:23.090Z,22.38
2016-12-09T14:40:33.226Z,22.4
2016-12-09T14:41:43.195Z,22.41
2016-12-09T14:42:53.163Z,22.44
2016-12-09T14:44:03.445Z,22.44
2016-12-09T14:45:14.040Z,22.43
2016-12-09T14:46:24.014Z,22.52
2016-12-09T14:47:33.998Z,22.44
2016-12-09T14:48:43.972Z,22.51
2016-12-09T14:49:54.037Z,22.46
2016-12-09T14:51:04.358Z,22.52
2016-12-09T14:52:14.645Z,22.55
2016-12-09T14:53:24.934Z,22.58
2016-12-09T14:54:35.236Z,22.59
2016-12-09T14:55:45.218Z,22.61
2016-12-09T14:56:55.784Z,22.51
2016-12-09T14:58:06.069Z,22.62
2016-12-09T14:59:16.044Z,22.51
2016-12-09T15:00:26.332Z,22.53
2016-12-09T15:01:36.309Z,22.62
2016-12-09T15:02:46.901Z,22.63
2016-12-09T15:03:57.218Z,22.59
2016-12-09T15:05:07.192Z,22.68
2016-12-09T15:06:16.855Z,22.73
2016-12-09T15:07:26.828Z,22.65
2016-12-09T15:08:37.147Z,22.77